Weather reports worldwide

Advertisment
Katesbridge, United Kingdom (99014): temperature & dewpoint: 06.12.2019 16:00:00 - 12.12.2019 16:00:00 (GMT)Katesbridge, United Kingdom (99014): wind speed & gusts: 06.12.2019 16:00:00 - 12.12.2019 16:00:00 (GMT)Katesbridge, United Kingdom (99014): wind direction: 06.12.2019 16:00:00 - 12.12.2019 16:00:00 (GMT)Katesbridge, United Kingdom (99014): sunshine duration: 06.12.2019 16:00:00 - 12.12.2019 16:00:00 (GMT)Katesbridge, United Kingdom (99014): precipitation: 06.12.2019 16:00:00 - 12.12.2019 16:00:00 (GMT)
Date & Time tt [°C] td [°C] ff [km/h] ff [kn] fx [km/h] fx [kn] dd sd [min] rr [mm]
12.12.2019 16:00:00 5,2 4,3 5 3 - - NW 0 0,0
12.12.2019 15:00:00 5,5 4,5 11 6 - - W 0 0,0
12.12.2019 14:00:00 6,6 6,0 9 5 - - W 0 0,0
12.12.2019 13:00:00 7,0 6,3 5 3 - - SW 0 0,0
12.12.2019 12:00:00 6,8 6,1 2 1 - - ESE 0 1,0
12.12.2019 11:00:00 6,9 6,1 4 2 - - SE 0 0,0
12.12.2019 10:00:00 6,0 5,6 2 1 - - ESE 0 0,0
12.12.2019 09:00:00 5,9 5,5 4 2 - - SSE 0 0,0
12.12.2019 08:00:00 5,5 5,0 8 4 - - ESE 0 0,2
12.12.2019 07:00:00 4,7 3,8 9 5 - - ESE 0 0,0
12.12.2019 06:00:00 4,2 2,8 9 5 - - SSE 0 0,0
12.12.2019 05:00:00 3,1 1,9 8 4 - - SSE 0 0,0
12.12.2019 04:00:00 3,3 1,8 11 6 - - S 0 0,0
12.12.2019 03:00:00 2,7 1,5 5 3 - - S 0 0,0
12.12.2019 02:00:00 2,2 1,1 8 4 - - SSW 0 0,0
12.12.2019 01:00:00 1,8 0,7 11 6 - - WSW 0 0,0
12.12.2019 00:00:00 1,3 0,3 16 9 - - SW - 0,0
11.12.2019 23:00:00 0,9 -0,1 9 5 - - SW 0 0,0
11.12.2019 22:00:00 0,7 -0,5 5 3 - - S 0 0,0
11.12.2019 21:00:00 1,3 0,4 9 5 - - WSW 0 0,0
11.12.2019 20:00:00 1,0 -0,3 4 2 - - SW 0 0,0
11.12.2019 19:00:00 1,5 -0,1 5 3 - - W 0 0,0
11.12.2019 18:00:00 2,1 0,6 9 5 - - WSW 0 0,0
11.12.2019 17:00:00 1,9 0,1 5 3 - - WSW 0 0,0
11.12.2019 16:00:00 3,9 1,4 9 5 - - W 6 0,0
11.12.2019 15:00:00 4,4 1,2 15 8 - - W 54 0,0
11.12.2019 14:00:00 4,3 1,1 21 11 - - W 60 0,0
11.12.2019 13:00:00 4,5 1,5 18 10 - - W 54 0,0
11.12.2019 12:00:00 4,7 1,6 13 7 - - W 60 0,0
11.12.2019 11:00:00 3,7 1,6 18 10 - - WSW 6 0,0
11.12.2019 10:00:00 2,9 1,2 16 9 - - WSW 0 0,0
11.12.2019 09:00:00 3,0 1,6 18 10 - - WSW 0 0,0
11.12.2019 08:00:00 2,7 1,3 16 9 - - WSW 0 0,0
11.12.2019 07:00:00 3,0 1,4 16 9 - - WSW 0 0,0
11.12.2019 06:00:00 3,5 1,7 22 12 - - SW 0 0,0
11.12.2019 05:00:00 3,8 2,0 21 11 - - SW 0 0,0
11.12.2019 04:00:00 3,4 1,9 18 10 - - SW 0 0,0
11.12.2019 03:00:00 4,0 2,0 18 10 - - SW 0 0,0
11.12.2019 02:00:00 3,0 0,9 13 7 - - SW 0 0,0
11.12.2019 01:00:00 3,4 1,4 15 8 - - SW 0 0,0
11.12.2019 00:00:00 3,7 1,8 16 9 - - WSW - 0,0
10.12.2019 23:00:00 3,9 1,7 18 10 - - WSW 0 0,0
10.12.2019 22:00:00 4,1 1,8 16 9 - - W 0 0,0
10.12.2019 21:00:00 4,1 2,0 18 10 - - WSW 0 0,0
10.12.2019 20:00:00 4,3 2,2 21 11 - - W 0 0,0
10.12.2019 19:00:00 4,8 2,5 24 13 48 26 W 0 0,0
10.12.2019 18:00:00 4,6 2,4 24 13 - - W 0 0,0
10.12.2019 17:00:00 5,1 2,8 21 11 50 27 W 0 0,2
10.12.2019 16:00:00 5,7 4,3 18 10 46 25 W 0 0,4
10.12.2019 15:00:00 6,5 4,5 22 12 46 25 WNW 0 0,8
10.12.2019 14:00:00 7,5 6,0 22 12 48 26 WNW 0 3,4
10.12.2019 13:00:00 12,7 11,6 29 16 57 31 SW 0 0,6
10.12.2019 12:00:00 12,7 11,5 35 19 65 35 SW 0 0,2
10.12.2019 11:00:00 12,8 11,1 31 17 63 34 SW 0 0,0
10.12.2019 10:00:00 12,7 11,0 37 20 67 36 SW 0 0,2
10.12.2019 09:00:00 11,8 10,8 28 15 52 28 SSW 0 2,2
10.12.2019 08:00:00 10,6 9,6 28 15 55 30 SSW 0 0,8
10.12.2019 07:00:00 10,0 8,9 29 16 55 30 SSW 0 0,4
10.12.2019 06:00:00 9,6 7,9 26 14 55 30 SSW 0 0,0
10.12.2019 05:00:00 8,9 7,1 28 15 46 25 SSW 0 1,0
10.12.2019 04:00:00 8,1 6,5 26 14 52 28 SSW 0 0,2
10.12.2019 03:00:00 8,1 5,5 28 15 48 26 SSW 0 0,0
10.12.2019 02:00:00 7,5 5,0 24 13 46 25 SSW 0 0,0
10.12.2019 01:00:00 7,4 4,5 26 14 48 26 SSW 0 0,0
10.12.2019 00:00:00 6,9 3,3 29 16 50 27 SSW - 0,0
09.12.2019 23:00:00 5,7 3,9 18 10 - - S 0 0,0
09.12.2019 22:00:00 4,9 3,7 9 5 - - SSE 0 0,0
09.12.2019 21:00:00 2,5 2,0 5 3 - - S 0 0,0
09.12.2019 20:00:00 2,2 1,8 4 2 - - SE 0 0,0
09.12.2019 19:00:00 1,7 1,0 0 0 - - N 0 0,0
09.12.2019 18:00:00 2,9 1,8 5 3 - - WSW 0 0,0
09.12.2019 17:00:00 1,5 -0,6 2 1 - - N 0 0,0
09.12.2019 16:00:00 4,7 1,7 4 2 - - SSW 0 0,0
09.12.2019 15:00:00 6,4 2,0 5 3 - - WSW 54 0,0
09.12.2019 14:00:00 6,9 2,4 8 4 - - W 60 0,0
09.12.2019 13:00:00 7,5 3,2 5 3 - - WNW 54 0,0
09.12.2019 12:00:00 6,7 2,8 9 5 - - NW 60 0,0
09.12.2019 11:00:00 5,9 2,5 5 3 - - NW 54 0,0
09.12.2019 10:00:00 5,2 2,1 11 6 - - NW 0 0,0
09.12.2019 09:00:00 4,3 1,5 8 4 - - NW 0 0,0
09.12.2019 08:00:00 4,2 1,6 8 4 - - NW 0 0,0
09.12.2019 07:00:00 4,1 1,8 8 4 - - NW 0 0,0
09.12.2019 06:00:00 5,1 3,7 9 5 55 30 NNW 0 0,2
09.12.2019 05:00:00 5,6 3,3 28 15 67 36 NNW 0 0,4
09.12.2019 04:00:00 6,3 3,4 18 10 46 25 NNW 0 0,0
09.12.2019 03:00:00 6,4 3,4 18 10 48 26 NNW 0 0,0
09.12.2019 02:00:00 6,8 3,8 21 11 54 29 NNW 0 0,0
09.12.2019 01:00:00 7,2 4,5 16 9 54 29 NNW 0 0,0
09.12.2019 00:00:00 7,4 5,6 28 15 67 36 NNW - 0,0
08.12.2019 23:00:00 7,2 6,3 16 9 55 30 NW 0 3,2
08.12.2019 22:00:00 5,4 4,2 21 11 - - WSW 0 0,8
08.12.2019 21:00:00 5,7 4,1 18 10 - - WSW 0 0,2
08.12.2019 20:00:00 5,4 3,9 18 10 - - W 0 0,0
08.12.2019 19:00:00 5,5 4,2 18 10 - - WSW 0 0,4
08.12.2019 18:00:00 5,8 3,7 22 12 46 25 WSW 0 0,0
08.12.2019 17:00:00 5,3 3,4 22 12 48 26 WSW 0 0,8
08.12.2019 16:00:00 5,5 3,5 28 15 50 27 WSW 0 0,4
08.12.2019 15:00:00 5,9 2,8 29 16 52 28 WSW 18 0,0
08.12.2019 14:00:00 6,0 3,1 28 15 54 29 WSW 36 0,0
08.12.2019 13:00:00 5,7 2,7 29 16 54 29 WSW 36 0,0
08.12.2019 12:00:00 6,0 3,0 29 16 55 30 WSW 18 0,0
08.12.2019 11:00:00 5,9 3,0 28 15 50 27 WSW 6 0,0
08.12.2019 10:00:00 5,6 2,6 26 14 46 25 WSW 0 0,0
08.12.2019 09:00:00 4,8 2,5 18 10 - - WSW 0 0,0
08.12.2019 08:00:00 5,6 3,3 24 13 46 25 W 0 0,2
08.12.2019 07:00:00 5,4 2,8 22 12 - - W 0 0,0
08.12.2019 06:00:00 5,5 2,7 21 11 57 31 W 0 1,0
08.12.2019 05:00:00 6,4 3,5 16 9 50 27 W 0 0,0
08.12.2019 04:00:00 6,2 3,9 15 8 - - W 0 0,0
08.12.2019 03:00:00 6,6 4,1 26 14 61 33 WNW 0 0,8
08.12.2019 02:00:00 8,4 5,8 22 12 52 28 W 0 0,2
08.12.2019 01:00:00 8,7 6,5 22 12 - - W 0 0,0
08.12.2019 00:00:00 9,4 7,5 22 12 59 32 W - 0,8
07.12.2019 23:00:00 10,8 10,2 21 11 48 26 WSW 0 0,4
07.12.2019 22:00:00 10,6 9,7 31 17 67 36 SW 0 0,2
07.12.2019 21:00:00 10,1 9,1 28 15 61 33 SW 0 1,4
07.12.2019 20:00:00 10,9 8,7 37 20 59 32 SW 0 0,0
07.12.2019 19:00:00 10,8 8,4 31 17 65 35 SW 0 0,0
07.12.2019 18:00:00 10,6 8,6 28 15 52 28 SW 0 0,0
07.12.2019 17:00:00 10,1 8,5 21 11 - - SW 0 0,0
07.12.2019 16:00:00 10,6 8,8 22 12 - - SW 0 0,0
07.12.2019 15:00:00 10,5 8,9 18 10 - - SW 0 0,0
07.12.2019 14:00:00 10,3 8,7 22 12 - - SW 0 0,0
07.12.2019 13:00:00 9,7 8,4 16 9 - - SW 0 0,0
07.12.2019 12:00:00 9,0 8,1 18 10 - - SW 0 0,0
07.12.2019 11:00:00 8,4 7,8 18 10 - - SW 0 0,0
07.12.2019 10:00:00 8,2 7,4 11 6 - - SSW 0 0,0
07.12.2019 09:00:00 7,7 6,9 11 6 - - SW 0 0,0
07.12.2019 08:00:00 7,5 6,3 9 5 - - SSW 0 0,0
07.12.2019 07:00:00 7,4 6,3 9 5 - - SW 0 0,0
07.12.2019 06:00:00 7,4 6,2 11 6 - - W 0 0,0
07.12.2019 05:00:00 7,0 6,0 9 5 - - WSW 0 0,0
07.12.2019 04:00:00 6,6 5,4 5 3 - - WSW 0 0,0
07.12.2019 03:00:00 6,5 5,4 9 5 - - WSW 0 0,0
07.12.2019 02:00:00 6,6 5,4 8 4 - - W 0 0,0
07.12.2019 01:00:00 7,5 6,2 11 6 - - W 0 0,0
07.12.2019 00:00:00 7,9 6,5 11 6 - - W - 0,0
06.12.2019 23:00:00 7,7 6,3 11 6 - - W 0 0,0
06.12.2019 22:00:00 7,6 5,9 11 6 - - W 0 0,0
06.12.2019 21:00:00 7,7 6,4 13 7 - - W 0 0,0
06.12.2019 20:00:00 6,8 5,3 8 4 - - W 0 0,0
06.12.2019 19:00:00 8,0 6,4 15 8 - - W 0 0,0
06.12.2019 18:00:00 7,5 6,0 9 5 - - WNW 0 0,0
06.12.2019 17:00:00 8,2 6,7 11 6 - - W 0 0,0
06.12.2019 16:00:00 8,3 7,1 9 5 - - WNW 0 0,0

tt = temperature
td = dewpoint
ff = wind speed
fx = gusts
dd = wind direction
sd = sunshine duration
rr = precipitation

Next stations